createdAt,value
2023-05-20T00:00:01.600Z,14.97
2023-05-20T00:02:31.507Z,14.83
2023-05-20T00:04:59.840Z,16.00
2023-05-20T00:07:28.112Z,14.60
2023-05-20T00:09:56.515Z,16.80
2023-05-20T00:12:24.630Z,24.67
2023-05-20T00:14:53.812Z,16.93
2023-05-20T00:17:23.378Z,16.60
2023-05-20T00:19:52.854Z,16.27
2023-05-20T00:22:21.172Z,15.43
2023-05-20T00:24:49.290Z,19.53
2023-05-20T00:27:17.373Z,24.43
2023-05-20T00:29:46.228Z,19.00
2023-05-20T00:32:14.454Z,18.17
2023-05-20T00:34:44.577Z,19.00
2023-05-20T00:37:14.028Z,19.60
2023-05-20T00:39:42.136Z,17.03
2023-05-20T00:42:10.368Z,17.90
2023-05-20T00:44:38.462Z,22.20
2023-05-20T00:47:06.933Z,20.27
2023-05-20T00:49:35.066Z,19.40
2023-05-20T00:52:03.205Z,17.23
2023-05-20T00:54:33.289Z,25.73
2023-05-20T00:57:03.072Z,16.60
2023-05-20T00:59:31.298Z,24.13
2023-05-20T01:01:59.734Z,17.07
2023-05-20T01:04:28.504Z,15.47
2023-05-20T01:06:57.513Z,15.60
2023-05-20T01:09:26.003Z,22.33
2023-05-20T01:12:00.375Z,15.53
2023-05-20T01:14:31.210Z,22.80
2023-05-20T01:17:02.288Z,18.23
2023-05-20T01:19:38.430Z,17.67
2023-05-20T01:22:12.503Z,18.83
2023-05-20T01:24:43.084Z,20.03
2023-05-20T01:27:13.575Z,23.27
2023-05-20T01:29:43.386Z,19.27
2023-05-20T01:32:16.030Z,21.87
2023-05-20T01:34:45.319Z,19.17
2023-05-20T01:37:15.054Z,17.50
2023-05-20T01:39:45.132Z,18.47
2023-05-20T01:42:14.854Z,18.67
2023-05-20T01:44:43.405Z,19.27
2023-05-20T01:47:11.570Z,18.87
2023-05-20T01:49:39.672Z,19.57
2023-05-20T01:52:08.051Z,20.10
2023-05-20T01:54:36.202Z,16.30
2023-05-20T01:57:06.109Z,19.90
2023-05-20T01:59:34.215Z,22.10
2023-05-20T02:02:02.403Z,18.57
2023-05-20T02:04:30.524Z,18.43
2023-05-20T02:06:58.635Z,20.60
2023-05-20T02:09:26.735Z,21.53
2023-05-20T02:11:54.893Z,25.27
2023-05-20T02:14:24.360Z,22.10
2023-05-20T02:16:52.540Z,20.20
2023-05-20T02:19:23.800Z,21.63
2023-05-20T02:21:52.998Z,19.97
2023-05-20T02:24:21.704Z,26.20
2023-05-20T02:26:51.200Z,25.40
2023-05-20T02:29:22.108Z,23.23
2023-05-20T02:31:51.586Z,25.00
2023-05-20T02:34:20.352Z,20.87
2023-05-20T02:36:48.785Z,23.97
2023-05-20T02:39:17.014Z,17.37
2023-05-20T02:41:45.145Z,24.40
2023-05-20T02:44:13.499Z,18.90
2023-05-20T02:46:41.590Z,22.40
2023-05-20T02:49:11.067Z,21.63
2023-05-20T02:51:39.180Z,22.43
2023-05-20T02:54:07.255Z,23.93
2023-05-20T02:56:35.362Z,22.83
2023-05-20T02:59:04.805Z,21.50
2023-05-20T03:01:33.899Z,43.27
2023-05-20T03:04:03.496Z,24.30
2023-05-20T03:06:33.188Z,22.17
2023-05-20T03:09:01.560Z,22.97
2023-05-20T03:11:29.637Z,25.27
2023-05-20T03:13:57.822Z,28.63
2023-05-20T03:16:28.179Z,23.07
2023-05-20T03:18:56.489Z,24.90
2023-05-20T03:21:25.306Z,22.47
2023-05-20T03:23:54.796Z,21.23
2023-05-20T03:26:23.247Z,23.07
2023-05-20T03:28:51.388Z,26.17
2023-05-20T03:31:19.518Z,22.57
2023-05-20T03:33:47.695Z,26.20
2023-05-20T03:36:15.969Z,21.70
2023-05-20T03:38:44.053Z,22.90
2023-05-20T03:41:13.601Z,21.30
2023-05-20T03:43:41.742Z,23.17
2023-05-20T03:46:09.879Z,20.87
2023-05-20T03:48:37.970Z,21.50
2023-05-20T03:51:06.267Z,23.47
2023-05-20T03:53:34.387Z,25.10
2023-05-20T03:56:02.532Z,31.40
2023-05-20T03:58:32.382Z,21.13
2023-05-20T04:01:00.495Z,24.63
2023-05-20T04:03:29.162Z,29.77
2023-05-20T04:05:57.308Z,25.80
2023-05-20T04:08:26.391Z,26.07
2023-05-20T04:10:57.630Z,30.73
2023-05-20T04:13:26.736Z,30.57
2023-05-20T04:15:56.418Z,23.70
2023-05-20T04:18:24.526Z,24.87
2023-05-20T04:20:56.347Z,28.50
2023-05-20T04:23:24.629Z,25.33
2023-05-20T04:25:52.721Z,24.93
2023-05-20T04:28:23.975Z,28.10
2023-05-20T04:31:02.760Z,30.67
2023-05-20T04:33:31.186Z,28.73
2023-05-20T04:35:59.535Z,28.83
2023-05-20T04:38:29.974Z,35.77
2023-05-20T04:40:58.968Z,25.30
2023-05-20T04:43:29.937Z,26.07
2023-05-20T04:45:58.460Z,31.20
2023-05-20T04:48:28.058Z,27.03
2023-05-20T04:50:56.140Z,38.80
2023-05-20T04:53:24.251Z,31.70
2023-05-20T04:55:56.875Z,28.93
2023-05-20T04:58:25.596Z,34.10
2023-05-20T05:00:54.089Z,30.80
2023-05-20T05:03:22.165Z,31.17
2023-05-20T05:05:51.679Z,34.20
2023-05-20T05:08:19.859Z,33.07
2023-05-20T05:10:48.020Z,29.90
2023-05-20T05:13:16.248Z,29.80
2023-05-20T05:15:44.419Z,36.93
2023-05-20T05:18:12.619Z,32.87
2023-05-20T05:20:41.631Z,36.10
2023-05-20T05:23:11.095Z,33.80
2023-05-20T05:25:39.198Z,32.80
2023-05-20T05:28:07.279Z,35.23
2023-05-20T05:30:35.603Z,31.37
2023-05-20T05:33:03.935Z,38.83
2023-05-20T05:35:32.381Z,32.20
2023-05-20T05:38:00.689Z,34.10
2023-05-20T05:40:30.248Z,36.50
2023-05-20T05:42:58.318Z,31.00
2023-05-20T05:45:26.486Z,34.60
2023-05-20T05:47:55.204Z,34.37
2023-05-20T05:50:23.409Z,33.70
2023-05-20T05:52:51.506Z,32.50
2023-05-20T05:55:19.623Z,39.20
2023-05-20T05:57:49.060Z,32.17
2023-05-20T06:00:18.151Z,34.73
2023-05-20T06:02:46.598Z,35.97
2023-05-20T06:05:14.788Z,34.30
2023-05-20T06:07:42.921Z,34.80
2023-05-20T06:10:12.004Z,35.90
2023-05-20T06:12:40.112Z,56.13
2023-05-20T06:15:10.966Z,38.73
2023-05-20T06:17:39.133Z,39.40
2023-05-20T06:20:08.604Z,43.77
2023-05-20T06:22:36.725Z,33.30
2023-05-20T06:25:06.293Z,36.30
2023-05-20T06:27:34.414Z,37.33
2023-05-20T06:30:02.562Z,42.90
2023-05-20T06:32:32.374Z,38.60
2023-05-20T06:35:00.807Z,37.53
2023-05-20T06:37:29.162Z,36.17
2023-05-20T06:39:57.235Z,40.33
2023-05-20T06:42:25.414Z,39.83
2023-05-20T06:44:53.486Z,40.27
2023-05-20T06:47:22.023Z,41.33
2023-05-20T06:49:51.565Z,39.40
2023-05-20T06:52:19.668Z,43.90
2023-05-20T06:54:47.781Z,36.63
2023-05-20T06:57:16.087Z,42.73
2023-05-20T06:59:44.268Z,40.40
2023-05-20T07:02:12.583Z,36.70
2023-05-20T07:04:40.718Z,39.10
2023-05-20T07:07:10.274Z,40.07
2023-05-20T07:09:38.398Z,41.20
2023-05-20T07:12:07.123Z,36.20
2023-05-20T07:14:35.212Z,34.60
2023-05-20T07:17:03.295Z,39.83
2023-05-20T07:19:31.743Z,37.73
2023-05-20T07:21:59.936Z,38.57
2023-05-20T07:24:29.412Z,39.87
2023-05-20T07:26:57.590Z,37.67
2023-05-20T07:29:25.942Z,39.10
2023-05-20T07:31:54.106Z,33.53
2023-05-20T07:34:22.721Z,31.73
2023-05-20T07:36:51.410Z,40.90
2023-05-20T07:39:19.549Z,35.70
2023-05-20T07:41:49.034Z,40.73
2023-05-20T07:44:18.731Z,35.40
2023-05-20T07:46:46.842Z,35.80
2023-05-20T07:49:15.454Z,33.53
2023-05-20T07:51:43.594Z,40.00
2023-05-20T07:54:11.851Z,50.93
2023-05-20T07:56:40.036Z,35.77
2023-05-20T07:59:09.514Z,37.60
2023-05-20T08:01:38.007Z,39.20
2023-05-20T08:04:06.439Z,35.17
2023-05-20T08:06:35.391Z,31.37
2023-05-20T08:09:03.940Z,38.03
2023-05-20T08:11:32.099Z,35.30
2023-05-20T08:14:00.211Z,36.23
2023-05-20T08:16:30.059Z,30.57
2023-05-20T08:18:58.310Z,31.57
2023-05-20T08:21:26.760Z,34.07
2023-05-20T08:23:54.930Z,32.40
2023-05-20T08:26:23.170Z,32.83
2023-05-20T08:28:51.263Z,31.40
2023-05-20T08:31:19.952Z,34.07
2023-05-20T08:33:49.575Z,32.00
2023-05-20T08:36:19.450Z,30.20
2023-05-20T08:38:47.614Z,34.00
2023-05-20T08:41:15.748Z,32.07
2023-05-20T08:43:45.089Z,33.33
2023-05-20T08:46:15.169Z,33.43
2023-05-20T08:48:45.095Z,29.87
2023-05-20T08:51:17.202Z,30.90
2023-05-20T08:53:45.743Z,32.70
2023-05-20T08:56:14.933Z,32.90
2023-05-20T08:58:44.234Z,30.00
2023-05-20T09:01:12.468Z,31.50
2023-05-20T09:03:40.652Z,30.67
2023-05-20T09:06:10.062Z,29.17
2023-05-20T09:08:39.881Z,35.87
2023-05-20T09:11:10.817Z,36.87
2023-05-20T09:13:38.907Z,32.57
2023-05-20T09:16:07.538Z,29.47
2023-05-20T09:18:39.228Z,33.63
2023-05-20T09:21:08.536Z,27.23
2023-05-20T09:23:39.781Z,31.53
2023-05-20T09:26:07.991Z,31.60
2023-05-20T09:28:38.419Z,30.07
2023-05-20T09:31:08.837Z,33.17
2023-05-20T09:33:39.422Z,31.30
2023-05-20T09:36:09.818Z,32.43
2023-05-20T09:38:41.702Z,33.80
2023-05-20T09:41:12.447Z,29.97
2023-05-20T09:43:41.643Z,24.97
2023-05-20T09:46:10.344Z,30.70
2023-05-20T09:48:39.063Z,29.37
2023-05-20T09:51:08.204Z,25.80
2023-05-20T09:53:37.630Z,26.33
2023-05-20T09:56:07.728Z,25.73
2023-05-20T09:58:37.347Z,30.70
2023-05-20T10:01:06.802Z,25.80
2023-05-20T10:03:36.221Z,29.50
2023-05-20T10:06:35.408Z,28.13
2023-05-20T10:09:19.403Z,26.73
2023-05-20T10:11:59.608Z,32.50
2023-05-20T10:14:39.704Z,31.40
2023-05-20T10:17:15.158Z,24.90
2023-05-20T10:19:43.516Z,27.10
2023-05-20T10:22:13.832Z,25.40
2023-05-20T10:24:44.113Z,27.63
2023-05-20T10:27:15.503Z,27.90
2023-05-20T10:29:45.141Z,33.13
2023-05-20T10:32:13.336Z,22.50
2023-05-20T10:34:49.011Z,27.33
2023-05-20T10:37:26.447Z,24.53
2023-05-20T10:40:04.771Z,26.30
2023-05-20T10:42:34.282Z,23.30
2023-05-20T10:45:02.357Z,29.00
2023-05-20T10:47:31.141Z,23.10
2023-05-20T10:49:59.560Z,28.67
2023-05-20T10:52:27.825Z,22.93
2023-05-20T10:54:59.860Z,25.63
2023-05-20T10:57:29.232Z,26.90
2023-05-20T10:59:59.252Z,27.07
2023-05-20T11:02:28.758Z,28.37
2023-05-20T11:04:58.201Z,24.87
2023-05-20T11:07:27.809Z,27.30
2023-05-20T11:09:56.146Z,29.53
2023-05-20T11:12:25.210Z,28.43
2023-05-20T11:14:53.587Z,27.27
2023-05-20T11:17:23.198Z,31.20
2023-05-20T11:19:52.048Z,31.40
2023-05-20T11:22:20.146Z,35.50
2023-05-20T11:24:48.420Z,26.67
2023-05-20T11:27:16.693Z,27.50
2023-05-20T11:29:45.001Z,28.30
2023-05-20T11:32:13.962Z,27.00
2023-05-20T11:34:43.700Z,26.80
2023-05-20T11:37:13.711Z,27.43
2023-05-20T11:39:41.835Z,30.63
2023-05-20T11:42:10.019Z,27.53
2023-05-20T11:44:38.539Z,27.43
2023-05-20T11:47:06.828Z,30.20
2023-05-20T11:49:41.558Z,28.37
2023-05-20T11:52:13.479Z,29.47
2023-05-20T11:54:41.594Z,25.63
2023-05-20T11:57:09.742Z,28.00
2023-05-20T11:59:37.856Z,32.20
2023-05-20T12:02:05.995Z,28.17
2023-05-20T12:04:34.122Z,31.90
2023-05-20T12:07:04.101Z,28.10
2023-05-20T12:09:33.589Z,32.67
2023-05-20T12:12:02.697Z,29.60
2023-05-20T12:14:30.836Z,28.60
2023-05-20T12:16:59.848Z,31.77
2023-05-20T12:19:28.079Z,29.10
2023-05-20T12:21:56.380Z,34.10
2023-05-20T12:24:24.504Z,31.83
2023-05-20T12:26:53.960Z,32.93
2023-05-20T12:29:22.032Z,33.17
2023-05-20T12:31:50.183Z,33.13
2023-05-20T12:34:18.326Z,29.43
2023-05-20T12:36:47.158Z,31.70
2023-05-20T12:39:17.764Z,34.60
2023-05-20T12:41:46.053Z,32.63
2023-05-20T12:44:15.614Z,33.07
2023-05-20T12:46:43.965Z,33.57
2023-05-20T12:49:13.287Z,32.87
2023-05-20T12:51:41.381Z,34.40
2023-05-20T12:54:09.501Z,32.70
2023-05-20T12:56:37.634Z,37.57
2023-05-20T12:59:05.792Z,32.97
2023-05-20T13:01:35.368Z,36.60
2023-05-20T13:04:03.595Z,35.63
2023-05-20T13:06:32.383Z,33.60
2023-05-20T13:09:00.469Z,37.70
2023-05-20T13:11:28.600Z,36.17
2023-05-20T13:13:57.686Z,33.63
2023-05-20T13:16:26.427Z,34.37
2023-05-20T13:18:56.105Z,34.37
2023-05-20T13:21:24.738Z,36.50
2023-05-20T13:23:53.146Z,38.30
2023-05-20T13:26:21.953Z,33.13
2023-05-20T13:28:50.095Z,34.53
2023-05-20T13:31:18.259Z,31.37
2023-05-20T13:33:46.374Z,35.97
2023-05-20T13:36:15.878Z,34.27
2023-05-20T13:38:43.978Z,36.30
2023-05-20T13:41:12.226Z,42.13
2023-05-20T13:43:42.151Z,35.17
2023-05-20T13:46:10.433Z,37.37
2023-05-20T13:48:38.614Z,33.83
2023-05-20T13:51:06.969Z,38.33
2023-05-20T13:53:36.499Z,38.40
2023-05-20T13:56:05.411Z,42.40
2023-05-20T13:58:33.506Z,40.33
2023-05-20T14:01:01.673Z,38.83
2023-05-20T14:03:30.071Z,35.17
2023-05-20T14:05:58.435Z,35.67
2023-05-20T14:08:26.709Z,40.90
2023-05-20T14:10:56.226Z,38.80
2023-05-20T14:13:24.615Z,38.27
2023-05-20T14:15:54.940Z,40.10
2023-05-20T14:18:23.205Z,39.53
2023-05-20T14:20:51.442Z,43.37
2023-05-20T14:23:19.621Z,47.43
2023-05-20T14:25:47.749Z,39.53
2023-05-20T14:28:17.277Z,44.63
2023-05-20T14:30:45.543Z,40.10
2023-05-20T14:33:13.728Z,41.73
2023-05-20T14:35:41.850Z,38.70
2023-05-20T14:38:09.953Z,38.20
2023-05-20T14:40:38.178Z,37.93
2023-05-20T14:43:06.367Z,38.70
2023-05-20T14:45:35.971Z,37.30
2023-05-20T14:48:04.289Z,39.03
2023-05-20T14:50:32.510Z,39.93
2023-05-20T14:53:00.786Z,41.40
2023-05-20T14:55:28.913Z,34.10
2023-05-20T14:57:57.008Z,39.20
2023-05-20T15:00:25.119Z,39.97
2023-05-20T15:02:54.889Z,41.33
2023-05-20T15:05:23.027Z,43.50
2023-05-20T15:07:51.605Z,37.93
2023-05-20T15:10:19.768Z,38.50
2023-05-20T15:12:47.841Z,40.93
2023-05-20T15:15:16.177Z,41.70
2023-05-20T15:17:44.323Z,47.07
2023-05-20T15:20:14.318Z,37.83
2023-05-20T15:22:43.984Z,44.17
2023-05-20T15:25:12.148Z,40.87
2023-05-20T15:27:41.294Z,45.40
2023-05-20T15:30:10.306Z,41.93
2023-05-20T15:32:39.689Z,39.37
2023-05-20T15:35:08.829Z,35.17
2023-05-20T15:37:38.512Z,41.33
2023-05-20T15:40:07.685Z,33.37
2023-05-20T15:42:35.888Z,40.37
2023-05-20T15:45:04.014Z,52.00
2023-05-20T15:47:32.135Z,36.53
2023-05-20T15:50:02.261Z,38.47
2023-05-20T15:52:30.453Z,41.87
2023-05-20T15:54:59.949Z,44.53
2023-05-20T15:57:29.258Z,37.60
2023-05-20T15:59:57.529Z,38.27
2023-05-20T16:02:26.268Z,36.37
2023-05-20T16:04:54.549Z,37.50
2023-05-20T16:07:22.642Z,44.43
2023-05-20T16:09:50.781Z,36.10
2023-05-20T16:12:20.254Z,38.47
2023-05-20T16:14:48.435Z,36.07
2023-05-20T16:17:16.881Z,35.23
2023-05-20T16:19:45.027Z,37.43
2023-05-20T16:22:13.497Z,38.30
2023-05-20T16:24:41.950Z,37.20
2023-05-20T16:27:10.046Z,43.67
2023-05-20T16:29:40.260Z,41.30
2023-05-20T16:32:08.546Z,35.90
2023-05-20T16:34:36.639Z,41.63
2023-05-20T16:37:04.813Z,41.10
2023-05-20T16:39:32.973Z,40.00
2023-05-20T16:42:01.572Z,35.83
2023-05-20T16:44:29.728Z,38.77
2023-05-20T16:46:59.174Z,42.03
2023-05-20T16:49:27.273Z,42.20
2023-05-20T16:51:55.448Z,40.10
2023-05-20T16:54:23.550Z,43.63
2023-05-20T16:56:51.746Z,39.33
2023-05-20T16:59:19.824Z,36.53
2023-05-20T17:01:48.041Z,42.53
2023-05-20T17:04:17.557Z,41.57
2023-05-20T17:06:45.691Z,42.17
2023-05-20T17:09:13.754Z,39.93
2023-05-20T17:11:41.979Z,40.97
2023-05-20T17:14:10.163Z,39.60
2023-05-20T17:16:38.440Z,43.40
2023-05-20T17:19:06.607Z,41.70
2023-05-20T17:21:36.379Z,42.07
2023-05-20T17:24:04.654Z,37.30
2023-05-20T17:26:32.773Z,39.67
2023-05-20T17:29:00.969Z,40.73
2023-05-20T17:31:29.113Z,44.03
2023-05-20T17:33:57.240Z,41.73
2023-05-20T17:36:25.582Z,39.77
2023-05-20T17:38:55.030Z,39.27
2023-05-20T17:41:23.137Z,45.57
2023-05-20T17:43:51.493Z,43.80
2023-05-20T17:46:19.667Z,38.93
2023-05-20T17:48:47.817Z,41.07
2023-05-20T17:51:16.907Z,48.60
2023-05-20T17:53:45.028Z,41.70
2023-05-20T17:56:14.698Z,46.70
2023-05-20T17:58:44.969Z,37.10
2023-05-20T18:01:13.110Z,42.70
2023-05-20T18:03:41.758Z,41.43
2023-05-20T18:06:10.040Z,39.80
2023-05-20T18:08:38.136Z,42.13
2023-05-20T18:11:06.392Z,42.53
2023-05-20T18:13:35.968Z,40.63
2023-05-20T18:16:04.113Z,36.90
2023-05-20T18:18:32.241Z,36.67
2023-05-20T18:21:00.549Z,41.63
2023-05-20T18:23:28.643Z,37.33
2023-05-20T18:25:56.811Z,39.20
2023-05-20T18:28:24.885Z,55.43
2023-05-20T18:30:55.552Z,37.67
2023-05-20T18:33:24.957Z,38.40
2023-05-20T18:35:54.040Z,44.30
2023-05-20T18:38:22.488Z,41.27
2023-05-20T18:40:50.649Z,43.83
2023-05-20T18:43:18.779Z,40.20
2023-05-20T18:45:46.947Z,38.47
2023-05-20T18:48:25.540Z,42.60
2023-05-20T18:50:54.567Z,43.10
2023-05-20T18:53:23.655Z,39.70
2023-05-20T18:55:52.369Z,40.07
2023-05-20T18:58:20.654Z,39.97
2023-05-20T19:00:48.817Z,40.97
2023-05-20T19:03:18.338Z,42.90
2023-05-20T19:05:46.604Z,41.73
2023-05-20T19:08:14.782Z,47.67
2023-05-20T19:10:42.920Z,36.50
2023-05-20T19:13:11.207Z,40.90
2023-05-20T19:15:39.270Z,38.23
2023-05-20T19:18:07.480Z,45.33
2023-05-20T19:20:37.021Z,38.60
2023-05-20T19:23:05.132Z,38.67
2023-05-20T19:25:33.463Z,39.70
2023-05-20T19:28:01.685Z,44.50
2023-05-20T19:30:29.780Z,44.77
2023-05-20T19:32:58.049Z,41.73
2023-05-20T19:35:26.179Z,39.40
2023-05-20T19:37:55.704Z,43.23
2023-05-20T19:40:23.860Z,43.80
2023-05-20T19:42:52.515Z,44.10
2023-05-20T19:45:21.800Z,49.40
2023-05-20T19:47:50.066Z,48.80
2023-05-20T19:50:18.262Z,39.33
2023-05-20T19:52:46.383Z,47.43
2023-05-20T19:55:16.353Z,49.60
2023-05-20T19:57:46.813Z,45.27
2023-05-20T20:00:15.474Z,49.80
2023-05-20T20:02:43.589Z,43.50
2023-05-20T20:05:11.756Z,39.30
2023-05-20T20:07:39.902Z,45.60
2023-05-20T20:10:09.466Z,43.50
2023-05-20T20:12:39.567Z,43.93
2023-05-20T20:15:09.101Z,47.43
2023-05-20T20:17:37.806Z,50.40
2023-05-20T20:20:10.225Z,46.33
2023-05-20T20:22:38.392Z,47.60
2023-05-20T20:25:07.437Z,47.47
2023-05-20T20:27:35.946Z,48.63
2023-05-20T20:30:06.301Z,44.70
2023-05-20T20:32:35.625Z,39.60
2023-05-20T20:35:06.919Z,45.37
2023-05-20T20:37:36.053Z,55.00
2023-05-20T20:40:05.425Z,46.53
2023-05-20T20:42:33.512Z,55.90
2023-05-20T20:45:02.315Z,46.83
2023-05-20T20:47:31.902Z,45.73
2023-05-20T20:50:00.026Z,54.80
2023-05-20T20:52:28.264Z,45.10
2023-05-20T20:54:57.048Z,43.37
2023-05-20T20:57:26.634Z,46.87
2023-05-20T20:59:57.820Z,42.07
2023-05-20T21:02:26.237Z,44.17
2023-05-20T21:04:59.130Z,47.00
2023-05-20T21:07:27.230Z,48.47
2023-05-20T21:09:55.646Z,40.03
2023-05-20T21:12:24.290Z,41.33
2023-05-20T21:14:52.400Z,49.53
2023-05-20T21:17:20.538Z,45.83
2023-05-20T21:19:48.688Z,53.17
2023-05-20T21:22:18.171Z,48.03
2023-05-20T21:24:46.280Z,53.73
2023-05-20T21:27:14.428Z,47.87
2023-05-20T21:29:42.528Z,45.90
2023-05-20T21:32:10.709Z,42.63
2023-05-20T21:34:38.811Z,51.77
2023-05-20T21:37:07.000Z,54.93
2023-05-20T21:39:38.778Z,59.13
2023-05-20T21:42:07.450Z,47.80
2023-05-20T21:44:35.588Z,52.43
2023-05-20T21:47:03.699Z,51.53
2023-05-20T21:49:31.776Z,47.63
2023-05-20T21:51:59.878Z,55.00
2023-05-20T21:54:27.970Z,59.13
2023-05-20T21:56:57.407Z,61.67
2023-05-20T21:59:25.649Z,62.30
2023-05-20T22:01:54.310Z,56.37
2023-05-20T22:04:23.153Z,54.30
2023-05-20T22:06:51.309Z,55.83
2023-05-20T22:09:19.432Z,56.90
2023-05-20T22:11:48.083Z,54.37
2023-05-20T22:14:17.641Z,47.90
2023-05-20T22:16:48.594Z,57.40
2023-05-20T22:19:18.030Z,66.60
2023-05-20T22:21:50.612Z,56.33
2023-05-20T22:24:19.101Z,57.83
2023-05-20T22:26:47.231Z,52.33
2023-05-20T22:29:15.328Z,53.00
2023-05-20T22:31:44.868Z,54.30
2023-05-20T22:34:12.976Z,56.10
2023-05-20T22:36:41.732Z,50.40
2023-05-20T22:39:09.838Z,51.07
2023-05-20T22:41:37.948Z,54.20
2023-05-20T22:44:06.254Z,58.03
2023-05-20T22:46:34.436Z,59.07
2023-05-20T22:49:03.923Z,49.73
2023-05-20T22:51:34.240Z,55.17
2023-05-20T22:54:02.322Z,57.80
2023-05-20T22:56:32.592Z,54.00
2023-05-20T22:59:00.730Z,59.63
2023-05-20T23:01:28.941Z,58.23
2023-05-20T23:03:57.068Z,54.03
2023-05-20T23:06:26.916Z,59.83
2023-05-20T23:08:55.056Z,59.47
2023-05-20T23:11:23.344Z,55.20
2023-05-20T23:13:51.501Z,61.60
2023-05-20T23:16:19.648Z,64.17
2023-05-20T23:18:47.933Z,48.83
2023-05-20T23:21:16.969Z,53.30
2023-05-20T23:23:46.620Z,53.20
2023-05-20T23:26:14.858Z,55.63
2023-05-20T23:28:42.948Z,64.87
2023-05-20T23:31:12.080Z,56.30
2023-05-20T23:33:40.237Z,57.03
2023-05-20T23:36:09.593Z,54.80
2023-05-20T23:38:37.986Z,54.93
2023-05-20T23:41:07.631Z,61.60
2023-05-20T23:43:35.706Z,60.40
2023-05-20T23:46:04.012Z,57.20
2023-05-20T23:48:32.138Z,60.00
2023-05-20T23:51:00.223Z,62.63
2023-05-20T23:53:28.337Z,60.73
2023-05-20T23:55:56.458Z,57.33
2023-05-20T23:58:25.949Z,59.47
